Aviation Digital Data Service (ADDS)

Output produced by METARs form (1103 UTC 30 April 2017)
found at http://www.aviationweather.gov/adds/metars/
 
HUEN 301000Z 16006KT 9999 -RA SCT020 FEW022CB BKN120 22/20 Q1020.5 888.8 NOSIG
TAF HUEN 292300Z 3000/0106 32008KT 9999 SCT017 FEW019CB BKN130 
     TEMPO 3001/3006 VRB14KT 7000 TSRA BKN016 FEW018CB OVC090 
     BECMG 3007/3012 17010KT 8000 -TSRA SCT020 FEW022CB BKN120 FM 301600 22006KT 9000 FEW019 FEW022CB SCT110 
     BECMG 3021/3024 33006KT FEW018 FEW020CB SCT100 
     TEMPO 0101/0106 VRB12KT 8000 -TSRA SCT018 FEW020CB BKN100
       
TAF HUSO 301040Z 3012/0112 07004KT 9000 TSRA BKN020 FEW022CB 
     BECMG 3016/3019 28004KT 9999 -RA SCT018 FEW020CB BKN100 FM 302200 11003KT
       
HUEN 301000Z 16006KT 9999 -RA SCT020 FEW022CB BKN120 22/20 Q1020.5 888.8 NOSIG
TAF HUEN 292300Z 3000/0106 32008KT 9999 SCT017 FEW019CB BKN130 
     TEMPO 3001/3006 VRB14KT 7000 TSRA BKN016 FEW018CB OVC090 
     BECMG 3007/3012 17010KT 8000 -TSRA SCT020 FEW022CB BKN120 FM 301600 22006KT 9000 FEW019 FEW022CB SCT110 
     BECMG 3021/3024 33006KT FEW018 FEW020CB SCT100 
     TEMPO 0101/0106 VRB12KT 8000 -TSRA SCT018 FEW020CB BKN100
       
TAF HUSO 301040Z 3012/0112 07004KT 9000 TSRA BKN020 FEW022CB 
     BECMG 3016/3019 28004KT 9999 -RA SCT018 FEW020CB BKN100 FM 302200 11003KT